Terminal Aerodrome Forecast
Issued by NWS Northern Indiana

Home | Current Version | Previous Version | Graphics & Text | Print | Product List | Glossary On
Versions: 1 2 3 4 5 6 7 8 9 10 11 12 13
000
FTUS43 KIWX 292300
TAFFWA
TAF
KFWA 292340Z 3000/3024 21014G22KT P6SM BKN040
     FM300500 27011G18KT P6SM SCT030 BKN045
      TEMPO 3005/3007 BKN030
     FM301200 28012KT P6SM SKC
     FM301600 28012G18KT P6SM FEW060=

USA.gov is the U.S. government's official web portal to all federal, state and local government web resources and services.